sensor_id;sensor_type;location;lat;lon;timestamp;P1;durP1;ratioP1;P2;durP2;ratioP2
79670;SDS011;69137;50.878;8.050;2023-06-14T00:02:16;13.13;;;7.72;;
79670;SDS011;69137;50.878;8.050;2023-06-14T00:04:42;16.73;;;9.02;;
79670;SDS011;69137;50.878;8.050;2023-06-14T00:07:08;11.18;;;6.75;;
79670;SDS011;69137;50.878;8.050;2023-06-14T00:09:34;13.10;;;7.65;;
79670;SDS011;69137;50.878;8.050;2023-06-14T00:12:00;9.82;;;6.75;;
79670;SDS011;69137;50.878;8.050;2023-06-14T00:14:25;11.63;;;6.47;;
79670;SDS011;69137;50.878;8.050;2023-06-14T00:16:51;11.50;;;6.55;;
79670;SDS011;69137;50.878;8.050;2023-06-14T00:19:18;11.60;;;6.90;;
79670;SDS011;69137;50.878;8.050;2023-06-14T00:21:44;9.80;;;6.47;;
79670;SDS011;69137;50.878;8.050;2023-06-14T00:24:10;8.25;;;5.70;;
79670;SDS011;69137;50.878;8.050;2023-06-14T00:26:36;8.73;;;5.47;;
79670;SDS011;69137;50.878;8.050;2023-06-14T00:29:01;10.00;;;6.10;;
79670;SDS011;69137;50.878;8.050;2023-06-14T00:31:26;10.25;;;7.15;;
79670;SDS011;69137;50.878;8.050;2023-06-14T00:33:52;11.32;;;7.15;;
79670;SDS011;69137;50.878;8.050;2023-06-14T00:36:18;12.48;;;6.22;;
79670;SDS011;69137;50.878;8.050;2023-06-14T00:38:43;7.93;;;4.03;;
79670;SDS011;69137;50.878;8.050;2023-06-14T00:41:08;4.85;;;3.35;;
79670;SDS011;69137;50.878;8.050;2023-06-14T00:43:34;6.88;;;3.83;;
79670;SDS011;69137;50.878;8.050;2023-06-14T00:46:00;6.72;;;4.00;;
79670;SDS011;69137;50.878;8.050;2023-06-14T00:48:25;5.75;;;3.50;;
79670;SDS011;69137;50.878;8.050;2023-06-14T00:50:51;5.30;;;3.60;;
79670;SDS011;69137;50.878;8.050;2023-06-14T00:53:17;5.43;;;3.80;;
79670;SDS011;69137;50.878;8.050;2023-06-14T00:55:45;10.63;;;4.43;;
79670;SDS011;69137;50.878;8.050;2023-06-14T00:58:11;4.45;;;3.40;;
79670;SDS011;69137;50.878;8.050;2023-06-14T01:00:37;5.90;;;3.50;;
79670;SDS011;69137;50.878;8.050;2023-06-14T01:03:03;8.00;;;2.80;;
79670;SDS011;69137;50.878;8.050;2023-06-14T01:05:28;6.47;;;3.30;;
79670;SDS011;69137;50.878;8.050;2023-06-14T01:13:39;6.05;;;4.13;;
79670;SDS011;69137;50.878;8.050;2023-06-14T01:16:08;6.07;;;4.70;;
79670;SDS011;69137;50.878;8.050;2023-06-14T01:18:34;7.35;;;4.38;;
79670;SDS011;69137;50.878;8.050;2023-06-14T01:21:00;7.78;;;4.63;;
79670;SDS011;69137;50.878;8.050;2023-06-14T01:23:30;6.47;;;4.38;;
79670;SDS011;69137;50.878;8.050;2023-06-14T01:25:58;12.52;;;6.18;;
79670;SDS011;69137;50.878;8.050;2023-06-14T01:28:23;16.40;;;6.07;;
79670;SDS011;69137;50.878;8.050;2023-06-14T01:30:54;12.90;;;4.97;;
79670;SDS011;69137;50.878;8.050;2023-06-14T01:33:23;11.07;;;4.75;;
79670;SDS011;69137;50.878;8.050;2023-06-14T01:35:51;11.00;;;4.03;;
79670;SDS011;69137;50.878;8.050;2023-06-14T01:38:18;7.22;;;3.65;;
79670;SDS011;69137;50.878;8.050;2023-06-14T01:40:45;6.18;;;3.58;;
79670;SDS011;69137;50.878;8.050;2023-06-14T01:43:13;4.85;;;3.50;;
79670;SDS011;69137;50.878;8.050;2023-06-14T01:45:39;7.03;;;3.78;;
79670;SDS011;69137;50.878;8.050;2023-06-14T01:48:06;9.73;;;4.65;;
79670;SDS011;69137;50.878;8.050;2023-06-14T01:50:32;7.13;;;4.10;;
79670;SDS011;69137;50.878;8.050;2023-06-14T01:52:58;6.60;;;3.42;;
79670;SDS011;69137;50.878;8.050;2023-06-14T01:55:23;7.70;;;3.22;;
79670;SDS011;69137;50.878;8.050;2023-06-14T01:57:52;6.95;;;3.00;;
79670;SDS011;69137;50.878;8.050;2023-06-14T02:00:19;4.80;;;3.38;;
79670;SDS011;69137;50.878;8.050;2023-06-14T02:02:46;6.50;;;3.45;;
79670;SDS011;69137;50.878;8.050;2023-06-14T02:05:12;7.53;;;3.42;;
79670;SDS011;69137;50.878;8.050;2023-06-14T02:07:37;6.53;;;3.35;;
79670;SDS011;69137;50.878;8.050;2023-06-14T02:10:03;5.85;;;3.60;;
79670;SDS011;69137;50.878;8.050;2023-06-14T02:12:30;8.00;;;3.35;;
79670;SDS011;69137;50.878;8.050;2023-06-14T02:14:56;4.55;;;3.03;;
79670;SDS011;69137;50.878;8.050;2023-06-14T02:17:23;4.57;;;3.30;;
79670;SDS011;69137;50.878;8.050;2023-06-14T02:19:48;5.22;;;3.28;;
79670;SDS011;69137;50.878;8.050;2023-06-14T02:22:15;4.13;;;3.00;;
79670;SDS011;69137;50.878;8.050;2023-06-14T02:24:41;5.05;;;3.35;;
79670;SDS011;69137;50.878;8.050;2023-06-14T02:27:07;6.85;;;3.30;;
79670;SDS011;69137;50.878;8.050;2023-06-14T02:29:35;11.25;;;4.97;;
79670;SDS011;69137;50.878;8.050;2023-06-14T02:32:01;7.82;;;4.45;;
79670;SDS011;69137;50.878;8.050;2023-06-14T02:34:26;10.10;;;4.47;;
79670;SDS011;69137;50.878;8.050;2023-06-14T02:36:52;6.50;;;4.05;;
79670;SDS011;69137;50.878;8.050;2023-06-14T02:39:17;7.03;;;3.88;;
79670;SDS011;69137;50.878;8.050;2023-06-14T02:41:45;7.35;;;4.45;;
79670;SDS011;69137;50.878;8.050;2023-06-14T02:44:12;9.18;;;4.40;;
79670;SDS011;69137;50.878;8.050;2023-06-14T02:46:38;14.18;;;4.05;;
79670;SDS011;69137;50.878;8.050;2023-06-14T02:49:03;5.15;;;3.78;;
79670;SDS011;69137;50.878;8.050;2023-06-14T02:51:29;10.40;;;4.45;;
79670;SDS011;69137;50.878;8.050;2023-06-14T02:53:54;7.88;;;4.40;;
79670;SDS011;69137;50.878;8.050;2023-06-14T02:56:20;7.43;;;3.88;;
79670;SDS011;69137;50.878;8.050;2023-06-14T02:58:47;5.55;;;4.18;;
79670;SDS011;69137;50.878;8.050;2023-06-14T03:01:13;11.10;;;4.95;;
79670;SDS011;69137;50.878;8.050;2023-06-14T03:03:39;10.02;;;4.38;;
79670;SDS011;69137;50.878;8.050;2023-06-14T03:06:05;8.35;;;4.22;;
79670;SDS011;69137;50.878;8.050;2023-06-14T03:08:31;6.93;;;4.30;;
79670;SDS011;69137;50.878;8.050;2023-06-14T03:11:03;10.38;;;3.92;;
79670;SDS011;69137;50.878;8.050;2023-06-14T03:13:30;9.07;;;3.85;;
79670;SDS011;69137;50.878;8.050;2023-06-14T03:15:57;10.77;;;4.60;;
79670;SDS011;69137;50.878;8.050;2023-06-14T03:18:23;7.30;;;4.40;;
79670;SDS011;69137;50.878;8.050;2023-06-14T03:20:48;7.43;;;4.18;;
79670;SDS011;69137;50.878;8.050;2023-06-14T03:23:16;6.70;;;4.15;;
79670;SDS011;69137;50.878;8.050;2023-06-14T03:25:41;8.25;;;4.03;;
79670;SDS011;69137;50.878;8.050;2023-06-14T03:28:07;8.40;;;4.00;;
79670;SDS011;69137;50.878;8.050;2023-06-14T03:30:32;7.28;;;4.50;;
79670;SDS011;69137;50.878;8.050;2023-06-14T03:32:58;6.03;;;3.92;;
79670;SDS011;69137;50.878;8.050;2023-06-14T03:35:26;4.63;;;3.35;;
79670;SDS011;69137;50.878;8.050;2023-06-14T03:37:52;10.52;;;3.85;;
79670;SDS011;69137;50.878;8.050;2023-06-14T03:40:20;7.82;;;3.75;;
79670;SDS011;69137;50.878;8.050;2023-06-14T03:42:46;7.95;;;4.93;;
79670;SDS011;69137;50.878;8.050;2023-06-14T03:45:12;13.23;;;5.20;;
79670;SDS011;69137;50.878;8.050;2023-06-14T03:47:37;10.43;;;4.70;;
79670;SDS011;69137;50.878;8.050;2023-06-14T03:50:03;10.48;;;5.40;;
79670;SDS011;69137;50.878;8.050;2023-06-14T03:52:29;8.90;;;4.85;;
79670;SDS011;69137;50.878;8.050;2023-06-14T03:54:54;9.40;;;5.35;;
79670;SDS011;69137;50.878;8.050;2023-06-14T03:57:20;11.02;;;5.25;;
79670;SDS011;69137;50.878;8.050;2023-06-14T03:59:46;10.57;;;5.57;;
79670;SDS011;69137;50.878;8.050;2023-06-14T04:02:12;12.48;;;4.93;;
79670;SDS011;69137;50.878;8.050;2023-06-14T04:04:40;11.18;;;5.13;;
79670;SDS011;69137;50.878;8.050;2023-06-14T04:07:09;9.25;;;4.45;;
79670;SDS011;69137;50.878;8.050;2023-06-14T04:09:38;9.88;;;4.22;;
79670;SDS011;69137;50.878;8.050;2023-06-14T04:12:04;7.53;;;4.60;;
79670;SDS011;69137;50.878;8.050;2023-06-14T04:14:30;11.35;;;5.53;;
79670;SDS011;69137;50.878;8.050;2023-06-14T04:16:58;9.25;;;4.78;;
79670;SDS011;69137;50.878;8.050;2023-06-14T04:19:23;10.75;;;5.82;;
79670;SDS011;69137;50.878;8.050;2023-06-14T04:21:49;15.15;;;5.47;;
79670;SDS011;69137;50.878;8.050;2023-06-14T04:24:15;11.55;;;5.90;;
79670;SDS011;69137;50.878;8.050;2023-06-14T04:26:41;11.48;;;5.30;;
79670;SDS011;69137;50.878;8.050;2023-06-14T04:29:09;10.35;;;5.18;;
79670;SDS011;69137;50.878;8.050;2023-06-14T04:31:45;13.68;;;5.00;;
79670;SDS011;69137;50.878;8.050;2023-06-14T04:34:11;7.43;;;4.25;;
79670;SDS011;69137;50.878;8.050;2023-06-14T04:36:44;10.27;;;5.68;;
79670;SDS011;69137;50.878;8.050;2023-06-14T04:39:14;7.90;;;4.40;;
79670;SDS011;69137;50.878;8.050;2023-06-14T04:41:42;12.15;;;5.40;;
79670;SDS011;69137;50.878;8.050;2023-06-14T04:44:08;12.23;;;5.50;;
79670;SDS011;69137;50.878;8.050;2023-06-14T04:46:35;8.10;;;4.28;;
79670;SDS011;69137;50.878;8.050;2023-06-14T04:49:09;13.35;;;4.47;;
79670;SDS011;69137;50.878;8.050;2023-06-14T04:51:35;11.90;;;3.97;;
79670;SDS011;69137;50.878;8.050;2023-06-14T04:54:02;8.20;;;4.72;;
79670;SDS011;69137;50.878;8.050;2023-06-14T04:56:28;7.50;;;4.18;;
79670;SDS011;69137;50.878;8.050;2023-06-14T04:58:54;9.32;;;4.55;;
79670;SDS011;69137;50.878;8.050;2023-06-14T05:01:21;12.65;;;4.13;;
79670;SDS011;69137;50.878;8.050;2023-06-14T05:03:48;9.43;;;4.75;;
79670;SDS011;69137;50.878;8.050;2023-06-14T05:06:14;7.88;;;4.63;;
79670;SDS011;69137;50.878;8.050;2023-06-14T05:08:40;14.38;;;5.25;;
79670;SDS011;69137;50.878;8.050;2023-06-14T05:11:06;8.25;;;4.45;;
79670;SDS011;69137;50.878;8.050;2023-06-14T05:13:32;8.35;;;4.05;;
79670;SDS011;69137;50.878;8.050;2023-06-14T05:15:58;5.63;;;3.85;;
79670;SDS011;69137;50.878;8.050;2023-06-14T05:18:24;7.05;;;4.43;;
79670;SDS011;69137;50.878;8.050;2023-06-14T05:20:50;7.95;;;4.10;;
79670;SDS011;69137;50.878;8.050;2023-06-14T05:23:16;8.20;;;3.75;;
79670;SDS011;69137;50.878;8.050;2023-06-14T05:25:44;6.88;;;3.45;;
79670;SDS011;69137;50.878;8.050;2023-06-14T05:28:10;5.35;;;3.38;;
79670;SDS011;69137;50.878;8.050;2023-06-14T05:30:37;8.32;;;2.85;;
79670;SDS011;69137;50.878;8.050;2023-06-14T05:33:03;6.28;;;3.03;;
79670;SDS011;69137;50.878;8.050;2023-06-14T05:35:29;3.22;;;2.42;;
79670;SDS011;69137;50.878;8.050;2023-06-14T05:37:54;4.63;;;2.50;;
79670;SDS011;69137;50.878;8.050;2023-06-14T05:40:20;5.82;;;2.47;;
79670;SDS011;69137;50.878;8.050;2023-06-14T05:42:45;4.78;;;3.00;;
79670;SDS011;69137;50.878;8.050;2023-06-14T05:45:11;5.15;;;2.53;;
79670;SDS011;69137;50.878;8.050;2023-06-14T05:47:36;4.15;;;2.80;;
79670;SDS011;69137;50.878;8.050;2023-06-14T05:50:02;5.78;;;2.50;;
79670;SDS011;69137;50.878;8.050;2023-06-14T05:52:27;5.15;;;2.78;;
79670;SDS011;69137;50.878;8.050;2023-06-14T05:54:54;4.85;;;2.80;;
79670;SDS011;69137;50.878;8.050;2023-06-14T05:57:20;7.75;;;2.63;;
79670;SDS011;69137;50.878;8.050;2023-06-14T05:59:47;3.60;;;2.75;;
79670;SDS011;69137;50.878;8.050;2023-06-14T06:02:12;4.45;;;2.70;;
79670;SDS011;69137;50.878;8.050;2023-06-14T06:04:38;4.47;;;2.70;;
79670;SDS011;69137;50.878;8.050;2023-06-14T06:07:03;6.35;;;2.50;;
79670;SDS011;69137;50.878;8.050;2023-06-14T06:09:29;8.35;;;3.17;;
79670;SDS011;69137;50.878;8.050;2023-06-14T06:11:55;3.45;;;2.50;;
79670;SDS011;69137;50.878;8.050;2023-06-14T06:14:20;6.55;;;2.78;;
79670;SDS011;69137;50.878;8.050;2023-06-14T06:16:46;5.38;;;2.10;;
79670;SDS011;69137;50.878;8.050;2023-06-14T06:19:11;6.28;;;2.45;;
79670;SDS011;69137;50.878;8.050;2023-06-14T06:21:37;5.60;;;2.35;;
79670;SDS011;69137;50.878;8.050;2023-06-14T06:24:04;3.28;;;2.53;;
79670;SDS011;69137;50.878;8.050;2023-06-14T06:26:31;3.63;;;1.98;;
79670;SDS011;69137;50.878;8.050;2023-06-14T06:28:57;2.67;;;1.98;;
79670;SDS011;69137;50.878;8.050;2023-06-14T06:31:25;4.28;;;2.45;;
79670;SDS011;69137;50.878;8.050;2023-06-14T06:33:52;3.17;;;2.38;;
79670;SDS011;69137;50.878;8.050;2023-06-14T06:36:19;5.38;;;2.78;;
79670;SDS011;69137;50.878;8.050;2023-06-14T06:38:46;4.63;;;2.88;;
79670;SDS011;69137;50.878;8.050;2023-06-14T06:41:12;2.67;;;2.00;;
79670;SDS011;69137;50.878;8.050;2023-06-14T06:43:37;5.53;;;2.20;;
79670;SDS011;69137;50.878;8.050;2023-06-14T06:46:03;3.80;;;2.20;;
79670;SDS011;69137;50.878;8.050;2023-06-14T06:48:28;2.92;;;2.05;;
79670;SDS011;69137;50.878;8.050;2023-06-14T06:50:54;3.00;;;1.83;;
79670;SDS011;69137;50.878;8.050;2023-06-14T06:53:20;2.80;;;1.90;;
79670;SDS011;69137;50.878;8.050;2023-06-14T06:55:45;4.03;;;2.10;;
79670;SDS011;69137;50.878;8.050;2023-06-14T06:58:11;5.68;;;2.35;;
79670;SDS011;69137;50.878;8.050;2023-06-14T07:00:37;4.20;;;2.22;;
79670;SDS011;69137;50.878;8.050;2023-06-14T07:03:02;7.50;;;2.25;;
79670;SDS011;69137;50.878;8.050;2023-06-14T07:05:29;5.50;;;2.20;;
79670;SDS011;69137;50.878;8.050;2023-06-14T07:07:54;4.85;;;2.10;;
79670;SDS011;69137;50.878;8.050;2023-06-14T07:10:20;3.55;;;2.40;;
79670;SDS011;69137;50.878;8.050;2023-06-14T07:12:45;3.38;;;2.10;;
79670;SDS011;69137;50.878;8.050;2023-06-14T07:15:11;4.60;;;2.13;;
79670;SDS011;69137;50.878;8.050;2023-06-14T07:17:37;4.10;;;2.42;;
79670;SDS011;69137;50.878;8.050;2023-06-14T07:20:03;2.85;;;2.03;;
79670;SDS011;69137;50.878;8.050;2023-06-14T07:22:33;5.38;;;2.25;;
79670;SDS011;69137;50.878;8.050;2023-06-14T07:24:58;3.42;;;2.20;;
79670;SDS011;69137;50.878;8.050;2023-06-14T07:27:24;4.20;;;2.20;;
79670;SDS011;69137;50.878;8.050;2023-06-14T07:29:49;4.57;;;2.00;;
79670;SDS011;69137;50.878;8.050;2023-06-14T07:32:14;3.22;;;2.30;;
79670;SDS011;69137;50.878;8.050;2023-06-14T07:34:40;3.53;;;2.13;;
79670;SDS011;69137;50.878;8.050;2023-06-14T07:37:05;2.85;;;2.17;;
79670;SDS011;69137;50.878;8.050;2023-06-14T07:39:31;5.10;;;3.22;;
79670;SDS011;69137;50.878;8.050;2023-06-14T07:41:56;2.88;;;2.15;;
79670;SDS011;69137;50.878;8.050;2023-06-14T07:44:21;4.10;;;1.90;;
79670;SDS011;69137;50.878;8.050;2023-06-14T07:46:47;2.88;;;2.00;;
79670;SDS011;69137;50.878;8.050;2023-06-14T07:49:14;3.13;;;1.90;;
79670;SDS011;69137;50.878;8.050;2023-06-14T07:51:40;3.92;;;2.00;;
79670;SDS011;69137;50.878;8.050;2023-06-14T07:54:05;3.72;;;2.00;;
79670;SDS011;69137;50.878;8.050;2023-06-14T07:56:32;3.35;;;1.73;;
79670;SDS011;69137;50.878;8.050;2023-06-14T07:58:58;6.30;;;2.05;;
79670;SDS011;69137;50.878;8.050;2023-06-14T08:01:23;2.13;;;1.63;;
79670;SDS011;69137;50.878;8.050;2023-06-14T08:03:50;3.60;;;1.60;;
79670;SDS011;69137;50.878;8.050;2023-06-14T08:06:15;2.50;;;1.50;;
79670;SDS011;69137;50.878;8.050;2023-06-14T08:08:41;2.92;;;1.90;;
79670;SDS011;69137;50.878;8.050;2023-06-14T08:11:06;2.38;;;1.73;;
79670;SDS011;69137;50.878;8.050;2023-06-14T08:13:32;2.45;;;1.50;;
79670;SDS011;69137;50.878;8.050;2023-06-14T08:15:57;2.65;;;1.77;;
79670;SDS011;69137;50.878;8.050;2023-06-14T08:18:23;2.85;;;1.55;;
79670;SDS011;69137;50.878;8.050;2023-06-14T08:20:48;2.45;;;1.48;;
79670;SDS011;69137;50.878;8.050;2023-06-14T08:23:15;2.83;;;1.80;;
79670;SDS011;69137;50.878;8.050;2023-06-14T08:25:44;2.10;;;1.52;;
79670;SDS011;69137;50.878;8.050;2023-06-14T08:28:10;2.22;;;1.65;;
79670;SDS011;69137;50.878;8.050;2023-06-14T08:30:35;2.58;;;1.58;;
79670;SDS011;69137;50.878;8.050;2023-06-14T08:33:01;4.07;;;2.40;;
79670;SDS011;69137;50.878;8.050;2023-06-14T08:35:26;2.65;;;1.70;;
79670;SDS011;69137;50.878;8.050;2023-06-14T08:37:52;3.50;;;1.60;;
79670;SDS011;69137;50.878;8.050;2023-06-14T08:40:19;2.90;;;1.38;;
79670;SDS011;69137;50.878;8.050;2023-06-14T08:42:52;10.52;;;2.00;;
79670;SDS011;69137;50.878;8.050;2023-06-14T08:45:22;2.53;;;1.80;;
79670;SDS011;69137;50.878;8.050;2023-06-14T08:47:48;4.93;;;1.80;;
79670;SDS011;69137;50.878;8.050;2023-06-14T08:50:22;4.70;;;2.38;;
79670;SDS011;69137;50.878;8.050;2023-06-14T08:52:51;7.15;;;2.05;;
79670;SDS011;69137;50.878;8.050;2023-06-14T08:55:19;3.30;;;1.70;;
79670;SDS011;69137;50.878;8.050;2023-06-14T08:57:50;3.47;;;1.80;;
79670;SDS011;69137;50.878;8.050;2023-06-14T09:00:18;3.67;;;1.55;;
79670;SDS011;69137;50.878;8.050;2023-06-14T09:02:45;2.40;;;1.70;;
79670;SDS011;69137;50.878;8.050;2023-06-14T09:05:11;2.35;;;1.63;;
79670;SDS011;69137;50.878;8.050;2023-06-14T09:07:43;2.30;;;1.60;;
79670;SDS011;69137;50.878;8.050;2023-06-14T09:10:10;2.35;;;1.42;;
79670;SDS011;69137;50.878;8.050;2023-06-14T09:12:37;3.05;;;1.80;;
79670;SDS011;69137;50.878;8.050;2023-06-14T09:15:05;1.95;;;1.45;;
79670;SDS011;69137;50.878;8.050;2023-06-14T09:17:33;5.22;;;1.75;;
79670;SDS011;69137;50.878;8.050;2023-06-14T09:20:02;2.28;;;1.38;;
79670;SDS011;69137;50.878;8.050;2023-06-14T09:22:34;2.08;;;1.55;;
79670;SDS011;69137;50.878;8.050;2023-06-14T09:25:00;5.35;;;1.77;;
79670;SDS011;69137;50.878;8.050;2023-06-14T09:27:26;2.50;;;1.60;;
79670;SDS011;69137;50.878;8.050;2023-06-14T09:29:52;2.20;;;1.42;;
79670;SDS011;69137;50.878;8.050;2023-06-14T09:32:18;2.10;;;1.60;;
79670;SDS011;69137;50.878;8.050;2023-06-14T09:34:45;2.53;;;1.52;;
79670;SDS011;69137;50.878;8.050;2023-06-14T09:37:10;2.67;;;1.92;;
79670;SDS011;69137;50.878;8.050;2023-06-14T09:39:48;1.63;;;1.40;;
79670;SDS011;69137;50.878;8.050;2023-06-14T09:42:18;3.20;;;1.63;;
79670;SDS011;69137;50.878;8.050;2023-06-14T09:44:47;2.70;;;2.15;;
79670;SDS011;69137;50.878;8.050;2023-06-14T09:47:14;3.08;;;1.70;;
79670;SDS011;69137;50.878;8.050;2023-06-14T09:49:41;3.72;;;1.77;;
79670;SDS011;69137;50.878;8.050;2023-06-14T09:52:07;2.85;;;1.50;;
79670;SDS011;69137;50.878;8.050;2023-06-14T09:54:37;4.38;;;2.03;;
79670;SDS011;69137;50.878;8.050;2023-06-14T09:57:07;4.45;;;1.83;;
79670;SDS011;69137;50.878;8.050;2023-06-14T09:59:36;5.85;;;1.92;;
79670;SDS011;69137;50.878;8.050;2023-06-14T10:02:07;4.68;;;1.83;;
79670;SDS011;69137;50.878;8.050;2023-06-14T10:04:56;2.65;;;1.90;;
79670;SDS011;69137;50.878;8.050;2023-06-14T10:07:25;3.25;;;2.05;;
79670;SDS011;69137;50.878;8.050;2023-06-14T10:09:55;5.53;;;2.20;;
79670;SDS011;69137;50.878;8.050;2023-06-14T10:12:21;8.93;;;2.10;;
79670;SDS011;69137;50.878;8.050;2023-06-14T10:14:50;4.60;;;1.75;;
79670;SDS011;69137;50.878;8.050;2023-06-14T10:18:01;4.07;;;2.00;;
79670;SDS011;69137;50.878;8.050;2023-06-14T10:22:48;4.95;;;2.30;;
79670;SDS011;69137;50.878;8.050;2023-06-14T10:25:26;4.13;;;2.50;;
79670;SDS011;69137;50.878;8.050;2023-06-14T10:28:01;2.22;;;1.77;;
79670;SDS011;69137;50.878;8.050;2023-06-14T10:31:04;4.63;;;1.95;;
79670;SDS011;69137;50.878;8.050;2023-06-14T10:33:50;2.85;;;1.98;;
79670;SDS011;69137;50.878;8.050;2023-06-14T10:36:30;2.80;;;2.05;;
79670;SDS011;69137;50.878;8.050;2023-06-14T10:38:58;3.47;;;1.98;;
79670;SDS011;69137;50.878;8.050;2023-06-14T10:41:38;3.22;;;2.03;;
79670;SDS011;69137;50.878;8.050;2023-06-14T10:46:40;4.47;;;2.53;;
79670;SDS011;69137;50.878;8.050;2023-06-14T10:49:12;3.10;;;2.10;;
79670;SDS011;69137;50.878;8.050;2023-06-14T10:51:41;3.92;;;2.17;;
79670;SDS011;69137;50.878;8.050;2023-06-14T10:54:12;6.22;;;2.03;;
79670;SDS011;69137;50.878;8.050;2023-06-14T10:56:39;3.88;;;2.40;;
79670;SDS011;69137;50.878;8.050;2023-06-14T10:59:11;3.35;;;2.00;;
79670;SDS011;69137;50.878;8.050;2023-06-14T11:01:59;3.50;;;2.20;;
79670;SDS011;69137;50.878;8.050;2023-06-14T11:04:50;3.33;;;1.73;;
79670;SDS011;69137;50.878;8.050;2023-06-14T11:10:00;3.28;;;2.15;;
79670;SDS011;69137;50.878;8.050;2023-06-14T11:12:45;5.07;;;2.00;;
79670;SDS011;69137;50.878;8.050;2023-06-14T11:15:13;6.15;;;2.40;;
79670;SDS011;69137;50.878;8.050;2023-06-14T11:17:38;4.80;;;2.20;;
79670;SDS011;69137;50.878;8.050;2023-06-14T11:20:10;3.55;;;1.90;;
79670;SDS011;69137;50.878;8.050;2023-06-14T11:22:43;3.95;;;2.42;;
79670;SDS011;69137;50.878;8.050;2023-06-14T11:25:10;3.28;;;2.10;;
79670;SDS011;69137;50.878;8.050;2023-06-14T11:27:36;2.40;;;2.00;;
79670;SDS011;69137;50.878;8.050;2023-06-14T11:30:02;3.10;;;2.20;;
79670;SDS011;69137;50.878;8.050;2023-06-14T11:32:28;4.40;;;1.98;;
79670;SDS011;69137;50.878;8.050;2023-06-14T11:34:56;3.15;;;2.15;;
79670;SDS011;69137;50.878;8.050;2023-06-14T11:37:23;3.72;;;2.35;;
79670;SDS011;69137;50.878;8.050;2023-06-14T11:39:51;3.22;;;2.20;;
79670;SDS011;69137;50.878;8.050;2023-06-14T11:42:16;3.67;;;2.20;;
79670;SDS011;69137;50.878;8.050;2023-06-14T11:44:45;3.35;;;2.00;;
79670;SDS011;69137;50.878;8.050;2023-06-14T11:47:11;2.75;;;1.90;;
79670;SDS011;69137;50.878;8.050;2023-06-14T11:49:37;2.85;;;2.25;;
79670;SDS011;69137;50.878;8.050;2023-06-14T11:52:02;3.47;;;2.00;;
79670;SDS011;69137;50.878;8.050;2023-06-14T11:54:28;6.20;;;2.30;;
79670;SDS011;69137;50.878;8.050;2023-06-14T11:56:53;4.28;;;2.50;;
79670;SDS011;69137;50.878;8.050;2023-06-14T11:59:20;4.05;;;2.28;;
79670;SDS011;69137;50.878;8.050;2023-06-14T12:01:47;4.38;;;2.63;;
79670;SDS011;69137;50.878;8.050;2023-06-14T12:04:13;3.42;;;2.30;;
79670;SDS011;69137;50.878;8.050;2023-06-14T12:06:38;3.13;;;2.13;;
79670;SDS011;69137;50.878;8.050;2023-06-14T12:09:05;3.40;;;2.20;;
79670;SDS011;69137;50.878;8.050;2023-06-14T12:11:43;2.63;;;1.95;;
79670;SDS011;69137;50.878;8.050;2023-06-14T12:14:11;2.75;;;2.10;;
79670;SDS011;69137;50.878;8.050;2023-06-14T12:16:38;3.00;;;2.42;;
79670;SDS011;69137;50.878;8.050;2023-06-14T12:19:14;6.40;;;2.17;;
79670;SDS011;69137;50.878;8.050;2023-06-14T12:21:41;3.15;;;2.17;;
79670;SDS011;69137;50.878;8.050;2023-06-14T12:24:07;2.80;;;2.05;;
79670;SDS011;69137;50.878;8.050;2023-06-14T12:26:34;4.38;;;2.00;;
79670;SDS011;69137;50.878;8.050;2023-06-14T12:29:05;3.75;;;2.17;;
79670;SDS011;69137;50.878;8.050;2023-06-14T12:31:32;4.20;;;2.40;;
79670;SDS011;69137;50.878;8.050;2023-06-14T12:33:57;3.70;;;2.22;;
79670;SDS011;69137;50.878;8.050;2023-06-14T12:36:22;3.08;;;2.10;;
79670;SDS011;69137;50.878;8.050;2023-06-14T12:38:48;2.47;;;2.13;;
79670;SDS011;69137;50.878;8.050;2023-06-14T12:41:14;3.15;;;2.35;;
79670;SDS011;69137;50.878;8.050;2023-06-14T12:43:40;3.83;;;2.58;;
79670;SDS011;69137;50.878;8.050;2023-06-14T12:46:06;4.45;;;2.30;;
79670;SDS011;69137;50.878;8.050;2023-06-14T12:48:31;2.88;;;2.08;;
79670;SDS011;69137;50.878;8.050;2023-06-14T12:50:57;2.58;;;1.90;;
79670;SDS011;69137;50.878;8.050;2023-06-14T12:53:23;3.35;;;2.28;;
79670;SDS011;69137;50.878;8.050;2023-06-14T12:55:49;3.35;;;2.05;;
79670;SDS011;69137;50.878;8.050;2023-06-14T12:58:14;2.90;;;2.10;;
79670;SDS011;69137;50.878;8.050;2023-06-14T13:00:41;2.72;;;2.00;;
79670;SDS011;69137;50.878;8.050;2023-06-14T13:03:07;4.15;;;2.03;;
79670;SDS011;69137;50.878;8.050;2023-06-14T13:05:33;2.72;;;2.08;;
79670;SDS011;69137;50.878;8.050;2023-06-14T13:07:58;3.45;;;2.50;;
79670;SDS011;69137;50.878;8.050;2023-06-14T13:10:24;4.25;;;3.05;;
79670;SDS011;69137;50.878;8.050;2023-06-14T13:12:51;5.28;;;2.60;;
79670;SDS011;69137;50.878;8.050;2023-06-14T13:15:16;3.92;;;2.10;;
79670;SDS011;69137;50.878;8.050;2023-06-14T13:17:42;3.20;;;2.08;;
79670;SDS011;69137;50.878;8.050;2023-06-14T13:20:13;3.00;;;2.40;;
79670;SDS011;69137;50.878;8.050;2023-06-14T13:22:39;3.78;;;2.10;;
79670;SDS011;69137;50.878;8.050;2023-06-14T13:25:04;3.10;;;2.55;;
79670;SDS011;69137;50.878;8.050;2023-06-14T13:27:31;3.10;;;2.47;;
79670;SDS011;69137;50.878;8.050;2023-06-14T13:29:56;4.07;;;2.40;;
79670;SDS011;69137;50.878;8.050;2023-06-14T13:32:22;3.72;;;2.25;;
79670;SDS011;69137;50.878;8.050;2023-06-14T13:34:48;3.88;;;2.45;;
79670;SDS011;69137;50.878;8.050;2023-06-14T13:37:14;3.40;;;2.22;;
79670;SDS011;69137;50.878;8.050;2023-06-14T13:39:40;3.97;;;2.10;;
79670;SDS011;69137;50.878;8.050;2023-06-14T13:42:05;3.75;;;2.50;;
79670;SDS011;69137;50.878;8.050;2023-06-14T13:44:31;2.95;;;2.13;;
79670;SDS011;69137;50.878;8.050;2023-06-14T13:46:57;3.33;;;2.20;;
79670;SDS011;69137;50.878;8.050;2023-06-14T13:49:22;2.38;;;1.92;;
79670;SDS011;69137;50.878;8.050;2023-06-14T13:51:47;3.65;;;2.53;;
79670;SDS011;69137;50.878;8.050;2023-06-14T13:54:13;3.40;;;2.42;;
79670;SDS011;69137;50.878;8.050;2023-06-14T13:56:42;5.35;;;2.55;;
79670;SDS011;69137;50.878;8.050;2023-06-14T13:59:07;3.60;;;2.67;;
79670;SDS011;69137;50.878;8.050;2023-06-14T14:01:33;5.25;;;2.35;;
79670;SDS011;69137;50.878;8.050;2023-06-14T14:03:58;2.65;;;2.10;;
79670;SDS011;69137;50.878;8.050;2023-06-14T14:06:25;6.70;;;2.65;;
79670;SDS011;69137;50.878;8.050;2023-06-14T14:08:51;3.35;;;2.45;;
79670;SDS011;69137;50.878;8.050;2023-06-14T14:11:17;3.00;;;2.15;;
79670;SDS011;69137;50.878;8.050;2023-06-14T14:13:43;2.90;;;2.13;;
79670;SDS011;69137;50.878;8.050;2023-06-14T14:16:09;7.57;;;2.75;;
79670;SDS011;69137;50.878;8.050;2023-06-14T14:18:35;4.82;;;2.40;;
79670;SDS011;69137;50.878;8.050;2023-06-14T14:21:02;3.85;;;2.33;;
79670;SDS011;69137;50.878;8.050;2023-06-14T14:23:27;2.95;;;2.28;;
79670;SDS011;69137;50.878;8.050;2023-06-14T14:25:53;4.95;;;2.80;;
79670;SDS011;69137;50.878;8.050;2023-06-14T14:28:18;3.17;;;2.25;;
79670;SDS011;69137;50.878;8.050;2023-06-14T14:30:45;4.32;;;2.78;;
79670;SDS011;69137;50.878;8.050;2023-06-14T14:33:12;3.85;;;2.40;;
79670;SDS011;69137;50.878;8.050;2023-06-14T14:35:42;5.13;;;2.50;;
79670;SDS011;69137;50.878;8.050;2023-06-14T14:38:10;4.22;;;3.10;;
79670;SDS011;69137;50.878;8.050;2023-06-14T14:40:36;5.93;;;2.53;;
79670;SDS011;69137;50.878;8.050;2023-06-14T14:43:02;5.00;;;2.30;;
79670;SDS011;69137;50.878;8.050;2023-06-14T14:45:27;4.05;;;2.40;;
79670;SDS011;69137;50.878;8.050;2023-06-14T14:47:52;3.58;;;2.33;;
79670;SDS011;69137;50.878;8.050;2023-06-14T14:50:18;2.90;;;2.45;;
79670;SDS011;69137;50.878;8.050;2023-06-14T14:52:43;7.60;;;2.95;;
79670;SDS011;69137;50.878;8.050;2023-06-14T14:55:09;4.45;;;2.33;;
79670;SDS011;69137;50.878;8.050;2023-06-14T14:57:34;3.60;;;2.28;;
79670;SDS011;69137;50.878;8.050;2023-06-14T15:00:01;3.63;;;2.60;;